MDT,Max TemperatureF,Mean TemperatureF,Min TemperatureF,Max Dew PointF,MeanDew PointF,Min DewpointF,Max Humidity, Mean Humidity, Min Humidity, Max Sea Level PressureIn, Mean Sea Level PressureIn, Min Sea Level PressureIn, Max VisibilityMiles, Mean VisibilityMiles, Min VisibilityMiles, Max Wind SpeedMPH, Mean Wind SpeedMPH, Max Gust SpeedMPH,PrecipitationIn, CloudCover, Events, WindDirDegrees
2011-10-1,83,65,46,35,30,27,50,32,14,30.15,30.00,29.88,10,10,10,14,7,,0.00,0,Rain,268
2011-10-2,81,65,49,40,35,30,50,35,19,30.16,29.98,29.88,10,10,10,21,5,30,0.00,0,,297
2011-10-3,80,63,46,41,37,31,66,42,18,30.20,29.99,29.86,10,10,9,12,7,16,T,1,,246
2011-10-4,78,68,57,42,39,32,55,37,19,29.96,29.75,29.62,10,10,10,23,14,32,0.00,0,,185
2011-10-5,69,60,50,43,38,33,71,49,27,29.76,29.53,29.37,10,10,10,32,21,45,0.00,1,,181
2011-10-6,62,48,33,44,36,30,96,69,42,29.53,29.42,29.28,10,8,2,31,18,47,0.62,6,Rain-Snow,183
2011-10-7,52,42,32,41,34,29,100,75,50,29.97,29.74,29.47,10,6,0,22,10,31,1.14,7,Fog-Rain-Snow,236
2011-10-8,45,42,39,39,37,34,100,83,65,30.29,30.12,29.94,10,10,6,20,10,28,0.11,8,Rain,14
2011-10-9,53,45,36,37,33,29,85,65,44,30.27,30.11,29.95,10,10,10,16,5,,0.00,5,,188
2011-10-10,58,46,33,32,28,26,70,51,32,29.95,29.87,29.75,10,10,10,15,8,,0.00,1,,225
2011-10-11,62,52,41,36,34,31,70,52,34,29.91,29.77,29.70,10,10,10,23,8,33,0.01,2,Rain,268
2011-10-12,63,53,43,30,23,14,50,32,14,30.11,30.01,29.90,10,10,10,27,19,43,0.00,0,,293
2011-10-13,64,51,38,31,25,17,50,37,23,30.06,29.97,29.87,10,10,10,21,9,29,0.00,1,,293
2011-10-14,60,49,37,35,31,28,70,54,37,30.11,30.00,29.93,10,10,10,14,6,,0.00,2,,50
2011-10-15,71,55,39,40,35,31,76,51,25,30.01,29.91,29.81,10,10,10,17,7,,0.00,0,,291
2011-10-16,55,47,39,42,38,36,92,73,54,30.12,30.00,29.91,10,10,9,16,6,,0.11,4,Rain,20
2011-10-17,51,45,38,44,33,28,93,67,41,30.32,30.17,29.88,10,10,4,24,9,37,0.05,5,Rain,25
2011-10-18,53,42,31,33,27,22,92,61,30,30.45,30.36,30.29,10,10,10,8,4,,0.00,0,,78
2011-10-19,57,44,30,32,29,25,85,60,35,30.27,30.06,29.91,10,10,10,9,6,,0.00,0,,327
2011-10-20,64,50,36,36,28,25,76,50,23,30.11,29.99,29.89,10,10,10,16,7,,0.00,0,,274
2011-10-21,62,52,41,34,30,26,62,46,29,30.15,30.09,30.04,10,10,10,13,7,,0.00,2,,258
2011-10-22,63,52,41,34,30,25,62,43,23,30.13,30.07,30.02,10,10,10,20,9,31,0.00,1,,280
2011-10-23,67,55,42,30,28,26,58,40,22,30.15,30.03,29.95,10,10,10,17,10,28,0.00,0,,269
2011-10-24,68,52,36,34,29,26,70,47,24,29.96,29.85,29.73,10,10,10,14,6,,T,0,,312
2011-10-25,43,37,31,35,26,18,92,68,44,30.30,30.13,29.88,10,10,8,14,9,22,T,8,Rain-Snow,43
2011-10-26,38,30,22,28,24,18,92,68,44,30.35,30.26,30.19,10,7,2,7,3,,0.02,6,Snow,280
2011-10-27,48,35,22,23,17,13,81,55,28,30.21,30.14,30.05,10,10,10,10,5,14,0.00,1,,358
2011-10-28,50,36,22,20,16,9,63,43,23,30.32,30.20,30.02,10,10,10,14,7,18,0.00,0,,282
2011-10-29,61,47,33,24,16,8,59,39,19,30.12,29.98,29.85,10,10,10,32,9,43,0.00,0,,264
2011-10-30,57,41,25,28,25,21,84,57,30,30.22,30.14,30.05,10,10,10,9,4,21,0.00,0,,33
2011-10-31,64,51,38,30,26,24,59,43,27,30.04,29.92,29.82,10,10,10,16,10,23,0.00,1,,281